sensor_id;sensor_type;location;lat;lon;timestamp;pressure;altitude;pressure_sealevel;temperature;humidity
13974;BME280;7060;43.770;4.008;2023-01-25T00:01:22;102289.38;;;3.11;54.52
13974;BME280;7060;43.770;4.008;2023-01-25T00:03:50;102294.66;;;3.11;54.48
13974;BME280;7060;43.770;4.008;2023-01-25T00:06:19;102300.03;;;3.09;54.62
13974;BME280;7060;43.770;4.008;2023-01-25T00:08:48;102293.13;;;3.05;54.58
13974;BME280;7060;43.770;4.008;2023-01-25T00:11:17;102282.69;;;3.02;54.53
13974;BME280;7060;43.770;4.008;2023-01-25T00:13:46;102279.06;;;3.04;55.07
13974;BME280;7060;43.770;4.008;2023-01-25T00:16:16;102278.09;;;3.07;55.18
13974;BME280;7060;43.770;4.008;2023-01-25T00:18:44;102274.75;;;3.02;54.86
13974;BME280;7060;43.770;4.008;2023-01-25T00:21:14;102280.16;;;2.99;54.85
13974;BME280;7060;43.770;4.008;2023-01-25T00:23:43;102276.88;;;2.92;54.98
13974;BME280;7060;43.770;4.008;2023-01-25T00:26:11;102284.06;;;2.89;54.11
13974;BME280;7060;43.770;4.008;2023-01-25T00:28:40;102277.97;;;2.87;54.58
13974;BME280;7060;43.770;4.008;2023-01-25T00:31:21;102274.41;;;2.88;54.62
13974;BME280;7060;43.770;4.008;2023-01-25T00:33:59;102263.97;;;2.85;55.38
13974;BME280;7060;43.770;4.008;2023-01-25T00:36:39;102267.63;;;2.82;54.43
13974;BME280;7060;43.770;4.008;2023-01-25T00:39:11;102240.09;;;2.64;55.30
13974;BME280;7060;43.770;4.008;2023-01-25T00:41:40;102266.88;;;2.79;54.58
13974;BME280;7060;43.770;4.008;2023-01-25T00:44:10;102268.59;;;2.80;54.69
13974;BME280;7060;43.770;4.008;2023-01-25T00:46:40;102257.16;;;2.79;54.99
13974;BME280;7060;43.770;4.008;2023-01-25T00:49:18;102262.50;;;2.78;54.59
13974;BME280;7060;43.770;4.008;2023-01-25T00:51:48;102263.41;;;2.77;54.75
13974;BME280;7060;43.770;4.008;2023-01-25T00:54:17;102272.16;;;2.79;54.76
13974;BME280;7060;43.770;4.008;2023-01-25T00:56:46;102272.22;;;2.77;54.66
13974;BME280;7060;43.770;4.008;2023-01-25T00:59:15;102263.53;;;2.73;55.10
13974;BME280;7060;43.770;4.008;2023-01-25T01:01:45;102269.56;;;2.77;55.35
13974;BME280;7060;43.770;4.008;2023-01-25T01:04:14;102265.94;;;2.80;55.23
13974;BME280;7060;43.770;4.008;2023-01-25T01:06:43;102259.75;;;2.81;55.09
13974;BME280;7060;43.770;4.008;2023-01-25T01:09:14;102254.31;;;2.84;54.44
13974;BME280;7060;43.770;4.008;2023-01-25T01:11:43;102252.63;;;2.83;54.51
13974;BME280;7060;43.770;4.008;2023-01-25T01:14:12;102250.09;;;2.80;55.02
13974;BME280;7060;43.770;4.008;2023-01-25T01:16:41;102252.00;;;2.76;54.69
13974;BME280;7060;43.770;4.008;2023-01-25T01:19:11;102256.47;;;2.74;54.94
13974;BME280;7060;43.770;4.008;2023-01-25T01:21:40;102260.91;;;2.73;55.02
13974;BME280;7060;43.770;4.008;2023-01-25T01:24:09;102264.50;;;2.71;55.25
13974;BME280;7060;43.770;4.008;2023-01-25T01:26:38;102262.72;;;2.71;54.82
13974;BME280;7060;43.770;4.008;2023-01-25T01:29:07;102268.06;;;2.70;54.66
13974;BME280;7060;43.770;4.008;2023-01-25T01:31:36;102266.28;;;2.70;54.92
13974;BME280;7060;43.770;4.008;2023-01-25T01:34:18;102259.13;;;2.74;54.66
13974;BME280;7060;43.770;4.008;2023-01-25T01:36:47;102266.13;;;2.75;54.96
13974;BME280;7060;43.770;4.008;2023-01-25T01:39:16;102267.91;;;2.74;54.97
13974;BME280;7060;43.770;4.008;2023-01-25T01:41:44;102278.53;;;2.73;55.41
13974;BME280;7060;43.770;4.008;2023-01-25T01:44:16;102278.47;;;2.74;55.24
13974;BME280;7060;43.770;4.008;2023-01-25T01:46:52;102275.00;;;2.72;54.70
13974;BME280;7060;43.770;4.008;2023-01-25T01:49:28;102255.94;;;2.64;55.26
13974;BME280;7060;43.770;4.008;2023-01-25T01:52:14;102268.00;;;2.71;54.73
13974;BME280;7060;43.770;4.008;2023-01-25T01:54:47;102269.63;;;2.76;55.57
13974;BME280;7060;43.770;4.008;2023-01-25T01:57:19;102266.19;;;2.73;55.29
13974;BME280;7060;43.770;4.008;2023-01-25T01:59:52;102273.19;;;2.74;55.55
13974;BME280;7060;43.770;4.008;2023-01-25T02:02:24;102226.63;;;2.49;55.39
13974;BME280;7060;43.770;4.008;2023-01-25T02:04:58;102267.84;;;2.76;55.10
13974;BME280;7060;43.770;4.008;2023-01-25T02:07:31;102262.56;;;2.76;55.68
13974;BME280;7060;43.770;4.008;2023-01-25T02:10:03;102274.03;;;2.75;55.00
13974;BME280;7060;43.770;4.008;2023-01-25T02:12:32;102259.13;;;2.74;55.39
13974;BME280;7060;43.770;4.008;2023-01-25T02:15:02;102266.22;;;2.72;55.81
13974;BME280;7060;43.770;4.008;2023-01-25T02:17:34;102271.47;;;2.73;55.10
13974;BME280;7060;43.770;4.008;2023-01-25T02:20:08;102270.66;;;2.71;55.08
13974;BME280;7060;43.770;4.008;2023-01-25T02:22:48;102271.75;;;2.66;54.76
13974;BME280;7060;43.770;4.008;2023-01-25T02:25:22;102263.94;;;2.63;54.96
13974;BME280;7060;43.770;4.008;2023-01-25T02:27:54;102270.88;;;2.65;55.21
13974;BME280;7060;43.770;4.008;2023-01-25T02:30:25;102261.28;;;2.63;55.43
13974;BME280;7060;43.770;4.008;2023-01-25T02:32:53;102268.47;;;2.59;55.17
13974;BME280;7060;43.770;4.008;2023-01-25T02:35:24;102269.16;;;2.64;55.31
13974;BME280;7060;43.770;4.008;2023-01-25T02:38:04;102270.94;;;2.64;55.39
13974;BME280;7060;43.770;4.008;2023-01-25T02:40:40;102265.53;;;2.67;54.85
13974;BME280;7060;43.770;4.008;2023-01-25T02:43:12;102258.41;;;2.69;55.22
13974;BME280;7060;43.770;4.008;2023-01-25T02:45:43;102259.28;;;2.69;55.19
13974;BME280;7060;43.770;4.008;2023-01-25T02:48:12;102254.91;;;2.68;54.86
13974;BME280;7060;43.770;4.008;2023-01-25T02:50:41;102254.69;;;2.74;54.56
13974;BME280;7060;43.770;4.008;2023-01-25T02:53:10;102255.63;;;2.73;54.87
13974;BME280;7060;43.770;4.008;2023-01-25T02:55:40;102248.56;;;2.74;55.11
13974;BME280;7060;43.770;4.008;2023-01-25T02:58:09;102251.25;;;2.72;54.73
13974;BME280;7060;43.770;4.008;2023-01-25T03:00:39;102232.31;;;2.61;54.97
13974;BME280;7060;43.770;4.008;2023-01-25T03:03:07;102244.34;;;2.68;55.37
13974;BME280;7060;43.770;4.008;2023-01-25T03:05:36;102246.13;;;2.68;55.65
13974;BME280;7060;43.770;4.008;2023-01-25T03:08:04;102241.94;;;2.62;55.72
13974;BME280;7060;43.770;4.008;2023-01-25T03:10:33;102233.47;;;2.54;55.22
13974;BME280;7060;43.770;4.008;2023-01-25T03:13:03;102241.09;;;2.62;55.55
13974;BME280;7060;43.770;4.008;2023-01-25T03:15:32;102235.69;;;2.65;55.20
13974;BME280;7060;43.770;4.008;2023-01-25T03:18:01;102230.34;;;2.66;55.47
13974;BME280;7060;43.770;4.008;2023-01-25T03:20:30;102218.13;;;2.64;55.39
13974;BME280;7060;43.770;4.008;2023-01-25T03:22:59;102213.00;;;2.59;55.89
13974;BME280;7060;43.770;4.008;2023-01-25T03:25:27;102221.69;;;2.63;55.05
13974;BME280;7060;43.770;4.008;2023-01-25T03:28:09;102210.19;;;2.64;55.16
13974;BME280;7060;43.770;4.008;2023-01-25T03:30:38;102205.56;;;2.70;55.59
13974;BME280;7060;43.770;4.008;2023-01-25T03:33:07;102211.56;;;2.74;55.55
13974;BME280;7060;43.770;4.008;2023-01-25T03:35:36;102199.97;;;2.78;55.20
13974;BME280;7060;43.770;4.008;2023-01-25T03:38:04;102199.81;;;2.83;55.16
13974;BME280;7060;43.770;4.008;2023-01-25T03:40:33;102201.50;;;2.84;55.14
13974;BME280;7060;43.770;4.008;2023-01-25T03:43:01;102200.63;;;2.83;55.34
13974;BME280;7060;43.770;4.008;2023-01-25T03:45:31;102203.38;;;2.82;55.56
13974;BME280;7060;43.770;4.008;2023-01-25T03:48:00;102203.38;;;2.82;55.46
13974;BME280;7060;43.770;4.008;2023-01-25T03:50:29;102199.00;;;2.81;55.07
13974;BME280;7060;43.770;4.008;2023-01-25T03:52:58;102190.34;;;2.77;55.55
13974;BME280;7060;43.770;4.008;2023-01-25T03:55:47;102186.03;;;2.74;55.41
13974;BME280;7060;43.770;4.008;2023-01-25T03:58:18;102177.19;;;2.76;54.84
13974;BME280;7060;43.770;4.008;2023-01-25T04:00:48;102192.00;;;2.80;55.70
13974;BME280;7060;43.770;4.008;2023-01-25T04:03:17;102188.44;;;2.81;55.39
13974;BME280;7060;43.770;4.008;2023-01-25T04:05:47;102192.00;;;2.80;55.34
13974;BME280;7060;43.770;4.008;2023-01-25T04:08:17;102190.44;;;2.74;55.61
13974;BME280;7060;43.770;4.008;2023-01-25T04:10:49;102201.06;;;2.72;55.23
13974;BME280;7060;43.770;4.008;2023-01-25T04:13:20;102191.50;;;2.70;55.94
13974;BME280;7060;43.770;4.008;2023-01-25T04:15:53;102204.56;;;2.73;56.01
13974;BME280;7060;43.770;4.008;2023-01-25T04:18:41;102199.47;;;2.68;55.56
13974;BME280;7060;43.770;4.008;2023-01-25T04:21:10;102205.56;;;2.70;55.92
13974;BME280;7060;43.770;4.008;2023-01-25T04:23:39;102204.63;;;2.71;55.62
13974;BME280;7060;43.770;4.008;2023-01-25T04:26:14;102194.25;;;2.67;55.36
13974;BME280;7060;43.770;4.008;2023-01-25T04:28:50;102191.66;;;2.65;56.09
13974;BME280;7060;43.770;4.008;2023-01-25T04:31:20;102200.50;;;2.64;56.33
13974;BME280;7060;43.770;4.008;2023-01-25T04:33:49;102192.81;;;2.58;56.38
13974;BME280;7060;43.770;4.008;2023-01-25T04:36:19;102191.22;;;2.54;55.88
13974;BME280;7060;43.770;4.008;2023-01-25T04:38:47;102202.72;;;2.53;56.53
13974;BME280;7060;43.770;4.008;2023-01-25T04:41:16;102188.59;;;2.54;56.04
13974;BME280;7060;43.770;4.008;2023-01-25T04:43:44;102202.44;;;2.59;55.75
13974;BME280;7060;43.770;4.008;2023-01-25T04:46:14;102197.16;;;2.59;56.37
13974;BME280;7060;43.770;4.008;2023-01-25T04:48:45;102196.25;;;2.60;56.08
13974;BME280;7060;43.770;4.008;2023-01-25T04:51:15;102189.19;;;2.61;55.61
13974;BME280;7060;43.770;4.008;2023-01-25T04:53:44;102192.63;;;2.63;56.11
13974;BME280;7060;43.770;4.008;2023-01-25T04:56:13;102180.47;;;2.59;56.17
13974;BME280;7060;43.770;4.008;2023-01-25T04:58:47;102179.06;;;2.50;56.27
13974;BME280;7060;43.770;4.008;2023-01-25T05:01:16;102184.75;;;2.39;57.12
13974;BME280;7060;43.770;4.008;2023-01-25T05:03:55;102178.81;;;2.33;57.37
13974;BME280;7060;43.770;4.008;2023-01-25T05:06:32;102170.31;;;2.26;57.59
13974;BME280;7060;43.770;4.008;2023-01-25T05:09:01;102180.81;;;2.28;57.62
13974;BME280;7060;43.770;4.008;2023-01-25T05:11:31;102172.19;;;2.23;57.89
13974;BME280;7060;43.770;4.008;2023-01-25T05:14:06;102174.94;;;2.20;57.62
13974;BME280;7060;43.770;4.008;2023-01-25T05:16:35;102174.09;;;2.19;57.43
13974;BME280;7060;43.770;4.008;2023-01-25T05:19:07;102172.31;;;2.20;57.61
13974;BME280;7060;43.770;4.008;2023-01-25T05:21:51;102165.38;;;2.17;57.29
13974;BME280;7060;43.770;4.008;2023-01-25T05:24:39;102168.06;;;2.16;57.26
13974;BME280;7060;43.770;4.008;2023-01-25T05:27:12;102173.38;;;2.14;57.49
13974;BME280;7060;43.770;4.008;2023-01-25T05:29:49;102175.22;;;2.12;58.17
13974;BME280;7060;43.770;4.008;2023-01-25T05:32:21;102170.06;;;2.09;57.67
13974;BME280;7060;43.770;4.008;2023-01-25T05:34:52;102175.44;;;2.06;58.37
13974;BME280;7060;43.770;4.008;2023-01-25T05:37:21;102174.69;;;2.02;58.21
13974;BME280;7060;43.770;4.008;2023-01-25T05:40:01;102171.28;;;2.00;57.81
13974;BME280;7060;43.770;4.008;2023-01-25T05:42:34;102173.91;;;2.00;57.61
13974;BME280;7060;43.770;4.008;2023-01-25T05:45:07;102170.22;;;2.04;57.72
13974;BME280;7060;43.770;4.008;2023-01-25T05:47:38;102172.94;;;2.71;56.94
13974;BME280;7060;43.770;4.008;2023-01-25T05:50:09;102178.81;;;2.33;57.18
13974;BME280;7060;43.770;4.008;2023-01-25T05:53:08;102182.28;;;2.12;57.68
13974;BME280;7060;43.770;4.008;2023-01-25T05:55:38;102183.28;;;2.08;57.64
13974;BME280;7060;43.770;4.008;2023-01-25T05:58:11;102173.78;;;2.03;57.74
13974;BME280;7060;43.770;4.008;2023-01-25T06:00:40;102168.63;;;2.00;57.09
13974;BME280;7060;43.770;4.008;2023-01-25T06:03:13;102173.09;;;1.98;57.57
13974;BME280;7060;43.770;4.008;2023-01-25T06:05:44;102171.53;;;1.93;57.12
13974;BME280;7060;43.770;4.008;2023-01-25T06:08:13;102176.13;;;1.88;57.74
13974;BME280;7060;43.770;4.008;2023-01-25T06:10:45;102172.78;;;1.83;57.44
13974;BME280;7060;43.770;4.008;2023-01-25T06:13:14;102174.66;;;1.79;57.92
13974;BME280;7060;43.770;4.008;2023-01-25T06:15:42;102165.13;;;1.75;57.56
13974;BME280;7060;43.770;4.008;2023-01-25T06:18:44;102143.19;;;1.50;57.78
13974;BME280;7060;43.770;4.008;2023-01-25T06:21:32;102164.41;;;1.71;57.91
13974;BME280;7060;43.770;4.008;2023-01-25T06:24:03;102161.63;;;1.75;57.81
13974;BME280;7060;43.770;4.008;2023-01-25T06:26:32;102154.47;;;1.78;57.63
13974;BME280;7060;43.770;4.008;2023-01-25T06:29:00;102153.66;;;1.76;57.35
13974;BME280;7060;43.770;4.008;2023-01-25T06:31:28;102154.59;;;1.75;57.36
13974;BME280;7060;43.770;4.008;2023-01-25T06:33:57;102157.16;;;1.77;57.32
13974;BME280;7060;43.770;4.008;2023-01-25T06:36:32;102159.75;;;1.78;57.36
13974;BME280;7060;43.770;4.008;2023-01-25T06:39:01;102157.16;;;1.77;56.78
13974;BME280;7060;43.770;4.008;2023-01-25T06:41:29;102139.13;;;1.66;57.16
13974;BME280;7060;43.770;4.008;2023-01-25T06:43:58;102155.50;;;1.74;57.75
13974;BME280;7060;43.770;4.008;2023-01-25T06:46:26;102142.09;;;1.80;57.63
13974;BME280;7060;43.770;4.008;2023-01-25T06:48:55;102147.16;;;1.86;57.23
13974;BME280;7060;43.770;4.008;2023-01-25T06:51:23;102141.72;;;1.91;57.20
13974;BME280;7060;43.770;4.008;2023-01-25T06:53:53;102150.50;;;1.91;56.90
13974;BME280;7060;43.770;4.008;2023-01-25T06:56:22;102141.78;;;1.89;56.47
13974;BME280;7060;43.770;4.008;2023-01-25T06:58:51;102138.22;;;1.90;56.62
13974;BME280;7060;43.770;4.008;2023-01-25T07:01:22;102129.50;;;1.88;56.73
13974;BME280;7060;43.770;4.008;2023-01-25T07:03:55;102133.06;;;1.87;56.88
13974;BME280;7060;43.770;4.008;2023-01-25T07:06:25;102118.47;;;1.77;56.80
13974;BME280;7060;43.770;4.008;2023-01-25T07:09:02;102133.91;;;1.88;56.24
13974;BME280;7060;43.770;4.008;2023-01-25T07:11:31;102142.63;;;1.90;56.48
13974;BME280;7060;43.770;4.008;2023-01-25T07:14:00;102138.16;;;1.92;56.18
13974;BME280;7060;43.770;4.008;2023-01-25T07:16:28;102137.31;;;1.91;55.95
13974;BME280;7060;43.770;4.008;2023-01-25T07:19:03;102140.16;;;1.85;56.44
13974;BME280;7060;43.770;4.008;2023-01-25T07:21:31;102130.84;;;1.75;56.43
13974;BME280;7060;43.770;4.008;2023-01-25T07:24:03;102141.03;;;1.86;56.03
13974;BME280;7060;43.770;4.008;2023-01-25T07:26:33;102139.34;;;1.83;56.04
13974;BME280;7060;43.770;4.008;2023-01-25T07:29:01;102149.44;;;1.72;56.26
13974;BME280;7060;43.770;4.008;2023-01-25T07:31:30;102141.34;;;1.77;56.43
13974;BME280;7060;43.770;4.008;2023-01-25T07:33:59;102145.66;;;1.79;56.38
13974;BME280;7060;43.770;4.008;2023-01-25T07:36:27;102144.84;;;1.77;56.48
13974;BME280;7060;43.770;4.008;2023-01-25T07:38:56;102149.09;;;1.81;56.73
13974;BME280;7060;43.770;4.008;2023-01-25T07:41:27;102144.41;;;1.89;56.11
13974;BME280;7060;43.770;4.008;2023-01-25T07:43:55;102154.59;;;2.00;56.05
13974;BME280;7060;43.770;4.008;2023-01-25T07:46:37;102147.97;;;2.12;55.67
13974;BME280;7060;43.770;4.008;2023-01-25T07:49:05;102153.13;;;2.15;55.46
13974;BME280;7060;43.770;4.008;2023-01-25T07:51:34;102149.53;;;2.17;55.53
13974;BME280;7060;43.770;4.008;2023-01-25T07:54:04;102146.66;;;2.23;54.91
13974;BME280;7060;43.770;4.008;2023-01-25T07:56:35;102143.97;;;2.25;55.12
13974;BME280;7060;43.770;4.008;2023-01-25T07:59:06;102146.66;;;2.23;54.60
13974;BME280;7060;43.770;4.008;2023-01-25T08:01:38;102147.53;;;2.24;54.96
13974;BME280;7060;43.770;4.008;2023-01-25T08:04:07;102140.66;;;2.20;54.88
13974;BME280;7060;43.770;4.008;2023-01-25T08:06:37;102145.56;;;2.29;54.80
13974;BME280;7060;43.770;4.008;2023-01-25T08:09:07;102097.69;;;2.16;55.15
13974;BME280;7060;43.770;4.008;2023-01-25T08:11:38;102146.31;;;2.78;54.66
13974;BME280;7060;43.770;4.008;2023-01-25T08:14:07;102130.31;;;3.23;54.58
13974;BME280;7060;43.770;4.008;2023-01-25T08:16:36;102125.63;;;3.70;53.86
13974;BME280;7060;43.770;4.008;2023-01-25T08:19:04;102114.09;;;4.10;53.45
13974;BME280;7060;43.770;4.008;2023-01-25T08:21:33;102125.03;;;4.59;52.61
13974;BME280;7060;43.770;4.008;2023-01-25T08:24:04;102122.88;;;5.03;51.53
13974;BME280;7060;43.770;4.008;2023-01-25T08:26:34;102128.91;;;5.41;50.74
13974;BME280;7060;43.770;4.008;2023-01-25T08:29:04;102122.78;;;5.73;50.76
13974;BME280;7060;43.770;4.008;2023-01-25T08:31:34;102123.66;;;6.07;49.33
13974;BME280;7060;43.770;4.008;2023-01-25T08:34:03;102121.47;;;6.62;48.35
13974;BME280;7060;43.770;4.008;2023-01-25T08:36:33;102123.22;;;6.77;48.36
13974;BME280;7060;43.770;4.008;2023-01-25T08:39:03;102113.72;;;6.89;47.74
13974;BME280;7060;43.770;4.008;2023-01-25T08:41:34;102109.03;;;7.08;46.50
13974;BME280;7060;43.770;4.008;2023-01-25T08:44:04;102111.25;;;7.16;46.34
13974;BME280;7060;43.770;4.008;2023-01-25T08:46:33;102108.97;;;7.24;47.00
13974;BME280;7060;43.770;4.008;2023-01-25T08:49:02;102110.00;;;7.37;46.04
13974;BME280;7060;43.770;4.008;2023-01-25T08:51:32;102116.50;;;7.47;46.76
13974;BME280;7060;43.770;4.008;2023-01-25T08:54:02;102101.66;;;7.58;45.74
13974;BME280;7060;43.770;4.008;2023-01-25T08:56:32;102104.22;;;7.59;44.89
13974;BME280;7060;43.770;4.008;2023-01-25T08:59:00;102116.00;;;7.55;45.48
13974;BME280;7060;43.770;4.008;2023-01-25T09:01:30;102105.84;;;7.47;45.20
13974;BME280;7060;43.770;4.008;2023-01-25T09:04:00;102111.03;;;7.35;44.98
13974;BME280;7060;43.770;4.008;2023-01-25T09:06:32;102098.72;;;7.18;45.10
13974;BME280;7060;43.770;4.008;2023-01-25T09:09:00;102099.56;;;7.19;44.59
13974;BME280;7060;43.770;4.008;2023-01-25T09:11:32;102094.91;;;7.22;45.69
13974;BME280;7060;43.770;4.008;2023-01-25T09:14:03;102093.66;;;7.43;45.46
13974;BME280;7060;43.770;4.008;2023-01-25T09:16:33;102080.38;;;7.58;44.68
13974;BME280;7060;43.770;4.008;2023-01-25T09:19:03;102051.78;;;7.31;44.75
13974;BME280;7060;43.770;4.008;2023-01-25T09:21:33;102073.41;;;7.41;44.96
13974;BME280;7060;43.770;4.008;2023-01-25T09:24:04;102070.09;;;7.22;45.04
13974;BME280;7060;43.770;4.008;2023-01-25T09:26:36;102082.19;;;7.27;45.36
13974;BME280;7060;43.770;4.008;2023-01-25T09:29:06;102076.09;;;7.25;45.42
13974;BME280;7060;43.770;4.008;2023-01-25T09:31:38;102079.44;;;7.29;45.83
13974;BME280;7060;43.770;4.008;2023-01-25T09:34:23;102077.22;;;7.21;45.30
13974;BME280;7060;43.770;4.008;2023-01-25T09:36:51;102084.31;;;7.06;45.60
13974;BME280;7060;43.770;4.008;2023-01-25T09:39:20;102083.81;;;7.00;46.15
13974;BME280;7060;43.770;4.008;2023-01-25T09:42:14;102083.44;;;6.92;46.00
13974;BME280;7060;43.770;4.008;2023-01-25T09:45:10;101985.22;;;6.29;46.63
13974;BME280;7060;43.770;4.008;2023-01-25T09:47:45;102080.53;;;6.80;46.36
13974;BME280;7060;43.770;4.008;2023-01-25T09:50:31;102083.53;;;6.74;47.32
13974;BME280;7060;43.770;4.008;2023-01-25T09:53:29;102088.84;;;6.74;46.75
13974;BME280;7060;43.770;4.008;2023-01-25T09:56:01;102089.03;;;6.71;46.93
13974;BME280;7060;43.770;4.008;2023-01-25T09:58:33;102067.28;;;6.65;47.28
13974;BME280;7060;43.770;4.008;2023-01-25T10:01:16;102090.22;;;6.81;48.14
13974;BME280;7060;43.770;4.008;2023-01-25T10:04:11;102084.72;;;6.85;46.72
13974;BME280;7060;43.770;4.008;2023-01-25T10:06:43;102086.53;;;6.84;47.71
13974;BME280;7060;43.770;4.008;2023-01-25T10:09:39;102070.06;;;6.77;47.30
13974;BME280;7060;43.770;4.008;2023-01-25T10:12:14;101928.81;;;5.94;47.03
13974;BME280;7060;43.770;4.008;2023-01-25T10:14:46;102066.47;;;6.78;47.03
13974;BME280;7060;43.770;4.008;2023-01-25T10:17:26;102064.50;;;6.82;47.48
13974;BME280;7060;43.770;4.008;2023-01-25T10:20:11;102069.13;;;6.78;47.15
13974;BME280;7060;43.770;4.008;2023-01-25T10:22:45;102072.03;;;6.74;46.88
13974;BME280;7060;43.770;4.008;2023-01-25T10:25:30;102060.56;;;6.73;47.22
13974;BME280;7060;43.770;4.008;2023-01-25T10:28:11;102050.69;;;6.75;46.58
13974;BME280;7060;43.770;4.008;2023-01-25T10:30:48;102052.59;;;6.73;46.71
13974;BME280;7060;43.770;4.008;2023-01-25T10:33:20;102046.25;;;6.76;46.48
13974;BME280;7060;43.770;4.008;2023-01-25T10:35:51;102037.81;;;6.84;46.70
13974;BME280;7060;43.770;4.008;2023-01-25T10:38:25;102030.63;;;6.86;46.38
13974;BME280;7060;43.770;4.008;2023-01-25T10:40:59;102011.00;;;6.72;46.09
13974;BME280;7060;43.770;4.008;2023-01-25T10:43:30;102027.69;;;6.90;46.17
13974;BME280;7060;43.770;4.008;2023-01-25T10:46:00;102016.03;;;6.93;45.61
13974;BME280;7060;43.770;4.008;2023-01-25T10:48:33;102014.41;;;7.04;46.27
13974;BME280;7060;43.770;4.008;2023-01-25T10:51:31;101917.97;;;6.58;45.90
13974;BME280;7060;43.770;4.008;2023-01-25T10:54:02;102001.81;;;7.22;46.05
13974;BME280;7060;43.770;4.008;2023-01-25T10:56:32;102004.53;;;7.36;45.91
13974;BME280;7060;43.770;4.008;2023-01-25T10:59:06;102001.84;;;7.51;45.79
13974;BME280;7060;43.770;4.008;2023-01-25T11:01:36;102003.38;;;7.55;44.29
13974;BME280;7060;43.770;4.008;2023-01-25T11:04:22;102000.44;;;7.59;45.34
13974;BME280;7060;43.770;4.008;2023-01-25T11:06:53;102002.63;;;7.67;45.23
13974;BME280;7060;43.770;4.008;2023-01-25T11:09:33;101973.16;;;7.70;43.90
13974;BME280;7060;43.770;4.008;2023-01-25T11:12:03;101977.44;;;7.72;43.71
13974;BME280;7060;43.770;4.008;2023-01-25T11:14:33;101971.34;;;7.70;44.77
13974;BME280;7060;43.770;4.008;2023-01-25T11:17:04;101963.41;;;7.83;45.27
13974;BME280;7060;43.770;4.008;2023-01-25T11:19:34;101956.38;;;7.96;44.60
13974;BME280;7060;43.770;4.008;2023-01-25T11:22:19;101920.22;;;7.92;44.48
13974;BME280;7060;43.770;4.008;2023-01-25T11:24:48;101947.91;;;8.16;44.28
13974;BME280;7060;43.770;4.008;2023-01-25T11:27:18;101942.94;;;8.25;44.51
13974;BME280;7060;43.770;4.008;2023-01-25T11:30:06;101934.13;;;8.37;44.03
13974;BME280;7060;43.770;4.008;2023-01-25T11:32:38;101939.13;;;8.29;42.65
13974;BME280;7060;43.770;4.008;2023-01-25T11:35:12;101942.53;;;8.31;43.55
13974;BME280;7060;43.770;4.008;2023-01-25T11:37:57;101940.97;;;8.41;43.32
13974;BME280;7060;43.770;4.008;2023-01-25T11:40:36;101925.31;;;8.49;43.45
13974;BME280;7060;43.770;4.008;2023-01-25T11:43:15;101917.88;;;8.54;43.59
13974;BME280;7060;43.770;4.008;2023-01-25T11:46:05;101911.25;;;8.60;42.48
13974;BME280;7060;43.770;4.008;2023-01-25T11:48:57;101900.28;;;8.64;42.85
13974;BME280;7060;43.770;4.008;2023-01-25T11:51:32;101901.78;;;8.68;42.97
13974;BME280;7060;43.770;4.008;2023-01-25T11:57:01;101876.81;;;8.69;42.01
13974;BME280;7060;43.770;4.008;2023-01-25T11:59:48;101876.41;;;8.75;41.79
13974;BME280;7060;43.770;4.008;2023-01-25T12:02:45;101865.94;;;8.72;42.43
13974;BME280;7060;43.770;4.008;2023-01-25T12:05:29;101862.88;;;8.78;42.68
13974;BME280;7060;43.770;4.008;2023-01-25T12:08:14;101859.78;;;8.84;42.13
13974;BME280;7060;43.770;4.008;2023-01-25T12:10:52;101844.06;;;8.93;42.70
13974;BME280;7060;43.770;4.008;2023-01-25T12:13:31;101839.59;;;8.93;41.73
13974;BME280;7060;43.770;4.008;2023-01-25T12:16:14;101836.19;;;8.91;40.81
13974;BME280;7060;43.770;4.008;2023-01-25T12:19:00;101814.19;;;8.88;42.01
13974;BME280;7060;43.770;4.008;2023-01-25T12:21:42;101813.78;;;8.94;42.39
13974;BME280;7060;43.770;4.008;2023-01-25T12:24:28;101813.56;;;8.97;42.70
13974;BME280;7060;43.770;4.008;2023-01-25T12:27:14;101792.75;;;9.02;42.30
13974;BME280;7060;43.770;4.008;2023-01-25T12:29:48;101800.22;;;9.09;42.65
13974;BME280;7060;43.770;4.008;2023-01-25T12:32:21;101791.00;;;9.13;42.09
13974;BME280;7060;43.770;4.008;2023-01-25T12:35:15;101787.38;;;9.14;42.39
13974;BME280;7060;43.770;4.008;2023-01-25T12:37:49;101779.63;;;9.11;42.73
13974;BME280;7060;43.770;4.008;2023-01-25T12:40:24;101778.97;;;9.08;41.86
13974;BME280;7060;43.770;4.008;2023-01-25T12:42:58;101783.38;;;8.96;42.22
13974;BME280;7060;43.770;4.008;2023-01-25T12:45:30;101781.97;;;8.91;42.68
13974;BME280;7060;43.770;4.008;2023-01-25T12:48:03;101772.75;;;8.83;43.15
13974;BME280;7060;43.770;4.008;2023-01-25T12:50:40;101763.16;;;8.81;43.87
13974;BME280;7060;43.770;4.008;2023-01-25T12:53:14;101736.81;;;8.64;43.51
13974;BME280;7060;43.770;4.008;2023-01-25T12:55:45;101770.72;;;8.74;44.59
13974;BME280;7060;43.770;4.008;2023-01-25T12:58:20;101758.47;;;8.59;43.37
13974;BME280;7060;43.770;4.008;2023-01-25T13:01:09;101762.09;;;8.45;44.45
13974;BME280;7060;43.770;4.008;2023-01-25T13:03:50;101761.88;;;8.36;44.44
13974;BME280;7060;43.770;4.008;2023-01-25T13:06:34;101753.13;;;8.34;43.73
13974;BME280;7060;43.770;4.008;2023-01-25T13:09:10;101748.88;;;8.31;44.21
13974;BME280;7060;43.770;4.008;2023-01-25T13:11:42;101748.56;;;8.36;43.31
13974;BME280;7060;43.770;4.008;2023-01-25T13:14:26;101746.84;;;8.35;43.13
13974;BME280;7060;43.770;4.008;2023-01-25T13:17:19;101736.94;;;8.37;44.33
13974;BME280;7060;43.770;4.008;2023-01-25T13:19:49;101740.91;;;8.44;44.05
13974;BME280;7060;43.770;4.008;2023-01-25T13:22:53;101731.91;;;8.58;44.15
13974;BME280;7060;43.770;4.008;2023-01-25T13:25:25;101732.22;;;8.66;44.41
13974;BME280;7060;43.770;4.008;2023-01-25T13:31:02;101722.19;;;8.69;44.03
13974;BME280;7060;43.770;4.008;2023-01-25T13:33:32;101732.75;;;8.71;43.04
13974;BME280;7060;43.770;4.008;2023-01-25T13:39:40;101727.09;;;8.63;43.23
13974;BME280;7060;43.770;4.008;2023-01-25T13:42:22;101727.31;;;8.60;42.73
13974;BME280;7060;43.770;4.008;2023-01-25T13:44:54;101683.56;;;8.26;43.04
13974;BME280;7060;43.770;4.008;2023-01-25T13:47:27;101731.63;;;8.49;44.05
13974;BME280;7060;43.770;4.008;2023-01-25T13:49:59;101697.22;;;8.21;43.64
13974;BME280;7060;43.770;4.008;2023-01-25T13:52:29;101731.19;;;8.30;43.43